sensor_id;sensor_type;location;lat;lon;timestamp;P1;durP1;ratioP1;P2;durP2;ratioP2
23555;SDS011;11956;53.184;8.578;2022-12-20T00:21:01;9.27;;;5.80;;
23555;SDS011;11956;53.184;8.578;2022-12-20T06:28:52;9.40;;;6.53;;
23555;SDS011;11956;53.184;8.578;2022-12-20T07:22:05;12.40;;;5.22;;
23555;SDS011;11956;53.184;8.578;2022-12-20T07:25:59;8.52;;;4.75;;
23555;SDS011;11956;53.184;8.578;2022-12-20T07:30:22;9.43;;;5.70;;
23555;SDS011;11956;53.184;8.578;2022-12-20T07:33:33;7.10;;;5.07;;
23555;SDS011;11956;53.184;8.578;2022-12-20T07:36:37;7.23;;;4.70;;
23555;SDS011;11956;53.184;8.578;2022-12-20T07:39:50;8.95;;;4.72;;
23555;SDS011;11956;53.184;8.578;2022-12-20T07:53:21;6.82;;;4.85;;
23555;SDS011;11956;53.184;8.578;2022-12-20T07:56:39;7.65;;;4.70;;
23555;SDS011;11956;53.184;8.578;2022-12-20T08:00:43;7.35;;;4.53;;
23555;SDS011;11956;53.184;8.578;2022-12-20T08:03:46;7.43;;;4.50;;
23555;SDS011;11956;53.184;8.578;2022-12-20T08:06:51;8.27;;;4.78;;
23555;SDS011;11956;53.184;8.578;2022-12-20T08:15:35;6.65;;;4.55;;
23555;SDS011;11956;53.184;8.578;2022-12-20T08:34:11;8.65;;;5.00;;
23555;SDS011;11956;53.184;8.578;2022-12-20T09:10:05;7.85;;;5.35;;
23555;SDS011;11956;53.184;8.578;2022-12-20T09:13:51;9.40;;;5.13;;
23555;SDS011;11956;53.184;8.578;2022-12-20T10:51:50;4.72;;;3.13;;
23555;SDS011;11956;53.184;8.578;2022-12-20T10:58:58;5.78;;;3.45;;
23555;SDS011;11956;53.184;8.578;2022-12-20T11:06:28;5.45;;;3.30;;
23555;SDS011;11956;53.184;8.578;2022-12-20T11:16:22;5.05;;;3.08;;
23555;SDS011;11956;53.184;8.578;2022-12-20T11:19:36;4.93;;;3.58;;
23555;SDS011;11956;53.184;8.578;2022-12-20T11:37:03;5.47;;;3.80;;
23555;SDS011;11956;53.184;8.578;2022-12-20T11:45:30;6.43;;;3.53;;
23555;SDS011;11956;53.184;8.578;2022-12-20T11:50:17;5.95;;;3.50;;
23555;SDS011;11956;53.184;8.578;2022-12-20T12:02:46;7.78;;;4.10;;
23555;SDS011;11956;53.184;8.578;2022-12-20T12:11:32;8.38;;;4.00;;
23555;SDS011;11956;53.184;8.578;2022-12-20T12:16:10;6.50;;;3.83;;
23555;SDS011;11956;53.184;8.578;2022-12-20T12:20:24;7.00;;;3.95;;
23555;SDS011;11956;53.184;8.578;2022-12-20T12:28:27;9.18;;;4.32;;
23555;SDS011;11956;53.184;8.578;2022-12-20T12:33:29;9.27;;;4.25;;
23555;SDS011;11956;53.184;8.578;2022-12-20T12:46:43;7.93;;;4.45;;
23555;SDS011;11956;53.184;8.578;2022-12-20T12:55:51;8.18;;;4.78;;
23555;SDS011;11956;53.184;8.578;2022-12-20T13:08:19;10.70;;;5.50;;
23555;SDS011;11956;53.184;8.578;2022-12-20T13:12:57;9.07;;;5.47;;
23555;SDS011;11956;53.184;8.578;2022-12-20T13:19:51;8.85;;;5.45;;
23555;SDS011;11956;53.184;8.578;2022-12-20T13:33:24;9.05;;;5.82;;
23555;SDS011;11956;53.184;8.578;2022-12-20T13:47:19;12.70;;;7.07;;
23555;SDS011;11956;53.184;8.578;2022-12-20T13:50:37;8.48;;;6.38;;
23555;SDS011;11956;53.184;8.578;2022-12-20T13:55:05;10.70;;;7.50;;
23555;SDS011;11956;53.184;8.578;2022-12-20T14:02:50;14.65;;;7.75;;
23555;SDS011;11956;53.184;8.578;2022-12-20T14:05:57;14.65;;;8.77;;
23555;SDS011;11956;53.184;8.578;2022-12-20T14:09:03;14.15;;;10.15;;
23555;SDS011;11956;53.184;8.578;2022-12-20T14:12:45;10.25;;;8.50;;
23555;SDS011;11956;53.184;8.578;2022-12-20T14:15:45;11.82;;;9.30;;
23555;SDS011;11956;53.184;8.578;2022-12-20T14:18:52;11.18;;;8.73;;
23555;SDS011;11956;53.184;8.578;2022-12-20T14:22:07;13.80;;;9.63;;
23555;SDS011;11956;53.184;8.578;2022-12-20T14:25:12;13.45;;;9.00;;
23555;SDS011;11956;53.184;8.578;2022-12-20T14:31:28;17.50;;;10.02;;
23555;SDS011;11956;53.184;8.578;2022-12-20T14:37:43;13.95;;;8.63;;
23555;SDS011;11956;53.184;8.578;2022-12-20T14:40:57;10.43;;;8.00;;
23555;SDS011;11956;53.184;8.578;2022-12-20T14:44:17;13.02;;;8.00;;
23555;SDS011;11956;53.184;8.578;2022-12-20T14:47:25;14.73;;;9.25;;
23555;SDS011;11956;53.184;8.578;2022-12-20T14:53:36;12.68;;;8.10;;
23555;SDS011;11956;53.184;8.578;2022-12-20T14:56:43;12.27;;;9.57;;
23555;SDS011;11956;53.184;8.578;2022-12-20T14:59:56;15.52;;;9.27;;
23555;SDS011;11956;53.184;8.578;2022-12-20T15:03:18;15.32;;;8.85;;
23555;SDS011;11956;53.184;8.578;2022-12-20T15:06:36;11.60;;;8.60;;
23555;SDS011;11956;53.184;8.578;2022-12-20T15:09:42;14.48;;;9.65;;
23555;SDS011;11956;53.184;8.578;2022-12-20T15:12:43;13.52;;;8.55;;
23555;SDS011;11956;53.184;8.578;2022-12-20T15:15:45;12.13;;;8.85;;
23555;SDS011;11956;53.184;8.578;2022-12-20T15:18:46;11.93;;;8.68;;
23555;SDS011;11956;53.184;8.578;2022-12-20T15:21:52;9.98;;;8.38;;
23555;SDS011;11956;53.184;8.578;2022-12-20T15:24:53;11.65;;;8.88;;
23555;SDS011;11956;53.184;8.578;2022-12-20T15:27:54;11.07;;;8.95;;
23555;SDS011;11956;53.184;8.578;2022-12-20T15:30:55;18.05;;;12.70;;
23555;SDS011;11956;53.184;8.578;2022-12-20T15:33:56;11.57;;;9.43;;
23555;SDS011;11956;53.184;8.578;2022-12-20T15:36:57;14.32;;;9.63;;
23555;SDS011;11956;53.184;8.578;2022-12-20T15:39:59;11.65;;;9.80;;
23555;SDS011;11956;53.184;8.578;2022-12-20T15:43:00;12.52;;;9.20;;
23555;SDS011;11956;53.184;8.578;2022-12-20T15:46:01;13.32;;;9.50;;
23555;SDS011;11956;53.184;8.578;2022-12-20T15:49:01;15.30;;;10.40;;
23555;SDS011;11956;53.184;8.578;2022-12-20T15:52:02;10.32;;;8.88;;
23555;SDS011;11956;53.184;8.578;2022-12-20T15:55:03;13.38;;;10.98;;
23555;SDS011;11956;53.184;8.578;2022-12-20T15:58:06;14.02;;;10.68;;
23555;SDS011;11956;53.184;8.578;2022-12-20T16:01:09;15.50;;;12.43;;
23555;SDS011;11956;53.184;8.578;2022-12-20T16:04:16;13.15;;;10.65;;
23555;SDS011;11956;53.184;8.578;2022-12-20T16:07:23;15.23;;;12.93;;
23555;SDS011;11956;53.184;8.578;2022-12-20T16:10:24;17.83;;;14.18;;
23555;SDS011;11956;53.184;8.578;2022-12-20T16:13:25;16.55;;;13.20;;
23555;SDS011;11956;53.184;8.578;2022-12-20T16:16:27;14.77;;;12.98;;
23555;SDS011;11956;53.184;8.578;2022-12-20T16:19:30;17.90;;;13.57;;
23555;SDS011;11956;53.184;8.578;2022-12-20T16:22:31;20.70;;;16.05;;
23555;SDS011;11956;53.184;8.578;2022-12-20T16:25:33;17.65;;;14.95;;
23555;SDS011;11956;53.184;8.578;2022-12-20T16:28:35;18.00;;;15.82;;
23555;SDS011;11956;53.184;8.578;2022-12-20T16:31:38;19.90;;;15.88;;
23555;SDS011;11956;53.184;8.578;2022-12-20T16:34:41;18.40;;;15.73;;
23555;SDS011;11956;53.184;8.578;2022-12-20T16:37:42;19.17;;;16.90;;
23555;SDS011;11956;53.184;8.578;2022-12-20T16:40:43;21.23;;;16.67;;
23555;SDS011;11956;53.184;8.578;2022-12-20T16:43:44;21.55;;;18.48;;
23555;SDS011;11956;53.184;8.578;2022-12-20T16:46:46;20.75;;;17.92;;
23555;SDS011;11956;53.184;8.578;2022-12-20T16:49:47;20.17;;;18.08;;
23555;SDS011;11956;53.184;8.578;2022-12-20T16:52:48;18.60;;;16.45;;
23555;SDS011;11956;53.184;8.578;2022-12-20T16:55:50;22.77;;;19.35;;
23555;SDS011;11956;53.184;8.578;2022-12-20T16:58:51;21.73;;;18.55;;
23555;SDS011;11956;53.184;8.578;2022-12-20T17:01:53;20.42;;;17.45;;
23555;SDS011;11956;53.184;8.578;2022-12-20T17:04:55;21.50;;;19.17;;
23555;SDS011;11956;53.184;8.578;2022-12-20T17:07:56;21.92;;;19.48;;
23555;SDS011;11956;53.184;8.578;2022-12-20T17:10:58;24.80;;;19.80;;
23555;SDS011;11956;53.184;8.578;2022-12-20T17:13:59;25.42;;;21.17;;
23555;SDS011;11956;53.184;8.578;2022-12-20T17:17:00;23.05;;;20.55;;
23555;SDS011;11956;53.184;8.578;2022-12-20T17:20:01;22.17;;;18.45;;
23555;SDS011;11956;53.184;8.578;2022-12-20T17:23:02;23.45;;;19.63;;
23555;SDS011;11956;53.184;8.578;2022-12-20T17:26:04;23.63;;;20.98;;
23555;SDS011;11956;53.184;8.578;2022-12-20T17:29:05;23.50;;;20.25;;
23555;SDS011;11956;53.184;8.578;2022-12-20T17:32:14;22.23;;;19.88;;
23555;SDS011;11956;53.184;8.578;2022-12-20T17:35:26;22.90;;;19.58;;
23555;SDS011;11956;53.184;8.578;2022-12-20T17:38:30;25.00;;;22.30;;
23555;SDS011;11956;53.184;8.578;2022-12-20T17:41:31;26.98;;;23.88;;
23555;SDS011;11956;53.184;8.578;2022-12-20T17:44:32;25.65;;;22.38;;
23555;SDS011;11956;53.184;8.578;2022-12-20T17:47:33;24.63;;;21.95;;
23555;SDS011;11956;53.184;8.578;2022-12-20T17:50:34;25.08;;;22.55;;
23555;SDS011;11956;53.184;8.578;2022-12-20T17:53:35;28.10;;;25.20;;
23555;SDS011;11956;53.184;8.578;2022-12-20T17:56:36;31.25;;;26.05;;
23555;SDS011;11956;53.184;8.578;2022-12-20T17:59:37;30.15;;;25.73;;
23555;SDS011;11956;53.184;8.578;2022-12-20T18:02:38;29.08;;;26.02;;
23555;SDS011;11956;53.184;8.578;2022-12-20T18:05:39;27.05;;;24.23;;
23555;SDS011;11956;53.184;8.578;2022-12-20T18:08:40;30.60;;;27.17;;
23555;SDS011;11956;53.184;8.578;2022-12-20T18:11:42;33.45;;;29.58;;
23555;SDS011;11956;53.184;8.578;2022-12-20T18:14:43;29.48;;;26.23;;
23555;SDS011;11956;53.184;8.578;2022-12-20T18:17:47;28.75;;;25.75;;
23555;SDS011;11956;53.184;8.578;2022-12-20T18:20:48;28.90;;;25.88;;
23555;SDS011;11956;53.184;8.578;2022-12-20T18:23:49;30.75;;;26.48;;
23555;SDS011;11956;53.184;8.578;2022-12-20T18:26:51;32.85;;;28.23;;
23555;SDS011;11956;53.184;8.578;2022-12-20T18:29:52;32.22;;;28.63;;
23555;SDS011;11956;53.184;8.578;2022-12-20T18:32:53;29.27;;;25.88;;
23555;SDS011;11956;53.184;8.578;2022-12-20T18:36:04;29.23;;;25.85;;
23555;SDS011;11956;53.184;8.578;2022-12-20T18:39:09;34.58;;;29.67;;
23555;SDS011;11956;53.184;8.578;2022-12-20T18:42:12;32.05;;;28.65;;
23555;SDS011;11956;53.184;8.578;2022-12-20T18:45:13;34.40;;;30.67;;
23555;SDS011;11956;53.184;8.578;2022-12-20T18:48:14;31.85;;;28.35;;
23555;SDS011;11956;53.184;8.578;2022-12-20T18:51:16;37.38;;;32.05;;
23555;SDS011;11956;53.184;8.578;2022-12-20T18:54:19;36.83;;;32.10;;
23555;SDS011;11956;53.184;8.578;2022-12-20T18:57:20;32.38;;;28.60;;
23555;SDS011;11956;53.184;8.578;2022-12-20T19:00:21;37.03;;;31.00;;
23555;SDS011;11956;53.184;8.578;2022-12-20T19:03:22;43.92;;;35.72;;
23555;SDS011;11956;53.184;8.578;2022-12-20T19:06:24;36.05;;;32.13;;
23555;SDS011;11956;53.184;8.578;2022-12-20T19:09:24;43.45;;;34.38;;
23555;SDS011;11956;53.184;8.578;2022-12-20T19:12:25;39.50;;;30.60;;
23555;SDS011;11956;53.184;8.578;2022-12-20T19:15:26;50.08;;;37.90;;
23555;SDS011;11956;53.184;8.578;2022-12-20T19:18:27;41.13;;;34.35;;
23555;SDS011;11956;53.184;8.578;2022-12-20T19:21:29;47.55;;;37.17;;
23555;SDS011;11956;53.184;8.578;2022-12-20T19:24:32;41.60;;;34.38;;
23555;SDS011;11956;53.184;8.578;2022-12-20T19:27:33;37.95;;;32.83;;
23555;SDS011;11956;53.184;8.578;2022-12-20T19:30:34;35.10;;;31.30;;
23555;SDS011;11956;53.184;8.578;2022-12-20T19:33:38;47.10;;;36.15;;
23555;SDS011;11956;53.184;8.578;2022-12-20T19:36:42;37.65;;;32.47;;
23555;SDS011;11956;53.184;8.578;2022-12-20T19:39:44;45.28;;;35.78;;
23555;SDS011;11956;53.184;8.578;2022-12-20T19:42:45;51.17;;;35.92;;
23555;SDS011;11956;53.184;8.578;2022-12-20T19:45:46;44.03;;;34.00;;
23555;SDS011;11956;53.184;8.578;2022-12-20T19:48:47;38.05;;;32.08;;
23555;SDS011;11956;53.184;8.578;2022-12-20T19:51:49;47.10;;;36.95;;
23555;SDS011;11956;53.184;8.578;2022-12-20T19:54:50;47.63;;;35.35;;
23555;SDS011;11956;53.184;8.578;2022-12-20T19:57:51;38.38;;;33.88;;
23555;SDS011;11956;53.184;8.578;2022-12-20T20:00:51;41.53;;;34.40;;
23555;SDS011;11956;53.184;8.578;2022-12-20T20:03:53;40.42;;;34.33;;
23555;SDS011;11956;53.184;8.578;2022-12-20T20:06:58;35.15;;;30.70;;
23555;SDS011;11956;53.184;8.578;2022-12-20T20:09:59;33.50;;;29.92;;
23555;SDS011;11956;53.184;8.578;2022-12-20T20:12:59;38.35;;;32.22;;
23555;SDS011;11956;53.184;8.578;2022-12-20T20:16:01;38.10;;;31.48;;
23555;SDS011;11956;53.184;8.578;2022-12-20T20:19:03;32.72;;;29.13;;
23555;SDS011;11956;53.184;8.578;2022-12-20T20:22:04;37.22;;;32.25;;
23555;SDS011;11956;53.184;8.578;2022-12-20T20:25:06;45.70;;;35.75;;
23555;SDS011;11956;53.184;8.578;2022-12-20T20:28:07;52.03;;;38.22;;
23555;SDS011;11956;53.184;8.578;2022-12-20T20:31:08;62.08;;;42.10;;
23555;SDS011;11956;53.184;8.578;2022-12-20T20:34:11;71.13;;;50.38;;
23555;SDS011;11956;53.184;8.578;2022-12-20T20:37:11;50.22;;;38.17;;
23555;SDS011;11956;53.184;8.578;2022-12-20T20:40:12;51.05;;;36.75;;
23555;SDS011;11956;53.184;8.578;2022-12-20T20:43:14;32.22;;;28.42;;
23555;SDS011;11956;53.184;8.578;2022-12-20T20:46:15;36.33;;;29.50;;
23555;SDS011;11956;53.184;8.578;2022-12-20T20:49:17;36.33;;;29.83;;
23555;SDS011;11956;53.184;8.578;2022-12-20T20:52:18;48.10;;;35.30;;
23555;SDS011;11956;53.184;8.578;2022-12-20T20:55:19;31.10;;;27.70;;
23555;SDS011;11956;53.184;8.578;2022-12-20T20:58:20;35.25;;;29.45;;
23555;SDS011;11956;53.184;8.578;2022-12-20T21:01:23;36.53;;;30.65;;
23555;SDS011;11956;53.184;8.578;2022-12-20T21:04:24;35.92;;;28.60;;
23555;SDS011;11956;53.184;8.578;2022-12-20T21:07:25;34.10;;;28.17;;
23555;SDS011;11956;53.184;8.578;2022-12-20T21:10:26;41.95;;;31.55;;
23555;SDS011;11956;53.184;8.578;2022-12-20T21:13:27;48.92;;;34.65;;
23555;SDS011;11956;53.184;8.578;2022-12-20T21:16:28;36.55;;;28.95;;
23555;SDS011;11956;53.184;8.578;2022-12-20T21:19:28;34.88;;;28.73;;
23555;SDS011;11956;53.184;8.578;2022-12-20T21:22:30;32.30;;;27.73;;
23555;SDS011;11956;53.184;8.578;2022-12-20T21:25:31;35.30;;;29.17;;
23555;SDS011;11956;53.184;8.578;2022-12-20T21:28:31;38.05;;;29.95;;
23555;SDS011;11956;53.184;8.578;2022-12-20T21:31:32;33.47;;;27.88;;
23555;SDS011;11956;53.184;8.578;2022-12-20T21:34:33;32.97;;;26.63;;
23555;SDS011;11956;53.184;8.578;2022-12-20T21:37:34;38.40;;;29.00;;
23555;SDS011;11956;53.184;8.578;2022-12-20T21:40:35;34.20;;;27.58;;
23555;SDS011;11956;53.184;8.578;2022-12-20T21:43:36;31.25;;;26.58;;
23555;SDS011;11956;53.184;8.578;2022-12-20T21:46:37;37.78;;;29.65;;
23555;SDS011;11956;53.184;8.578;2022-12-20T21:52:41;37.15;;;26.98;;
23555;SDS011;11956;53.184;8.578;2022-12-20T21:55:42;28.73;;;25.27;;
23555;SDS011;11956;53.184;8.578;2022-12-20T21:58:43;33.90;;;27.60;;
23555;SDS011;11956;53.184;8.578;2022-12-20T22:01:45;53.70;;;34.30;;
23555;SDS011;11956;53.184;8.578;2022-12-20T22:04:46;42.65;;;30.60;;
23555;SDS011;11956;53.184;8.578;2022-12-20T22:07:46;35.42;;;27.67;;
23555;SDS011;11956;53.184;8.578;2022-12-20T22:10:47;48.58;;;31.70;;
23555;SDS011;11956;53.184;8.578;2022-12-20T22:14:01;33.73;;;27.73;;
23555;SDS011;11956;53.184;8.578;2022-12-20T22:17:02;34.33;;;27.40;;
23555;SDS011;11956;53.184;8.578;2022-12-20T22:20:03;33.13;;;27.00;;
23555;SDS011;11956;53.184;8.578;2022-12-20T22:23:04;31.58;;;26.10;;
23555;SDS011;11956;53.184;8.578;2022-12-20T22:26:16;38.90;;;29.42;;
23555;SDS011;11956;53.184;8.578;2022-12-20T22:29:19;41.92;;;31.08;;
23555;SDS011;11956;53.184;8.578;2022-12-20T22:32:20;37.05;;;27.60;;
23555;SDS011;11956;53.184;8.578;2022-12-20T22:35:21;33.28;;;26.95;;
23555;SDS011;11956;53.184;8.578;2022-12-20T22:38:22;32.22;;;27.30;;
23555;SDS011;11956;53.184;8.578;2022-12-20T22:41:27;36.10;;;28.95;;
23555;SDS011;11956;53.184;8.578;2022-12-20T22:44:33;36.22;;;27.85;;
23555;SDS011;11956;53.184;8.578;2022-12-20T22:47:33;30.75;;;25.70;;
23555;SDS011;11956;53.184;8.578;2022-12-20T22:50:34;32.53;;;26.70;;
23555;SDS011;11956;53.184;8.578;2022-12-20T22:53:36;32.92;;;27.02;;
23555;SDS011;11956;53.184;8.578;2022-12-20T22:56:37;29.35;;;25.05;;
23555;SDS011;11956;53.184;8.578;2022-12-20T22:59:38;29.02;;;25.58;;
23555;SDS011;11956;53.184;8.578;2022-12-20T23:02:39;32.00;;;25.90;;
23555;SDS011;11956;53.184;8.578;2022-12-20T23:05:40;31.85;;;26.00;;
23555;SDS011;11956;53.184;8.578;2022-12-20T23:08:52;32.53;;;25.98;;
23555;SDS011;11956;53.184;8.578;2022-12-20T23:11:53;31.70;;;25.52;;
23555;SDS011;11956;53.184;8.578;2022-12-20T23:15:12;35.38;;;27.45;;
23555;SDS011;11956;53.184;8.578;2022-12-20T23:18:31;31.48;;;25.48;;
23555;SDS011;11956;53.184;8.578;2022-12-20T23:21:32;30.88;;;25.60;;
23555;SDS011;11956;53.184;8.578;2022-12-20T23:24:52;28.98;;;24.00;;
23555;SDS011;11956;53.184;8.578;2022-12-20T23:27:53;32.47;;;25.95;;
23555;SDS011;11956;53.184;8.578;2022-12-20T23:30:54;37.90;;;27.67;;
23555;SDS011;11956;53.184;8.578;2022-12-20T23:33:55;33.20;;;26.27;;
23555;SDS011;11956;53.184;8.578;2022-12-20T23:36:56;39.22;;;27.67;;
23555;SDS011;11956;53.184;8.578;2022-12-20T23:39:57;37.33;;;26.75;;
23555;SDS011;11956;53.184;8.578;2022-12-20T23:42:58;32.75;;;24.83;;
23555;SDS011;11956;53.184;8.578;2022-12-20T23:46:03;35.15;;;24.80;;
23555;SDS011;11956;53.184;8.578;2022-12-20T23:49:08;35.50;;;24.52;;
23555;SDS011;11956;53.184;8.578;2022-12-20T23:52:09;35.30;;;23.33;;
23555;SDS011;11956;53.184;8.578;2022-12-20T23:55:10;32.58;;;22.27;;
23555;SDS011;11956;53.184;8.578;2022-12-20T23:58:11;26.85;;;19.52;;
